Myra Eckstein — WDF9473 — position and weather

sailwx.info

Track history (hours):
 
Tides and Currents Weather Stations Pressure Air Temp Water Temp Dewpoint Dewpoint Depression Visibility Wind Speed Wind Dir Waves Ship Positions

Myra Eckstein

Owner: Marquette Transportation Co. LLC, Paducah, KY. More information available from US FCC via Universal Licensing System and Coast Guard Vessel Documentation Center.

Last reported at 2018-Apr-22 20:00 UTC. Time now 2018-Apr-22 20:23 UTC.
Position N 32°19' W 090°54'.

Length 47 m; draft 3 m.

Type: Towing. MMSI: 367505510.

Date/timePositionNaut miles runAvg speedWind from/ knotsBaromVisibWave heightAir tempDewpointWater temp
2018-Apr-22 20:00N 32°19' W 090°54'4 7.9
2018-Apr-22 19:30N 32°21' W 090°58'4 7.3
2018-Apr-22 19:00N 32°24' W 090°60'3 6.9
2018-Apr-22 18:30N 32°26' W 091°03'5 9.3
2018-Apr-22 18:00N 32°30' W 091°07'510.5
2018-Apr-22 17:30N 32°35' W 091°07'5 9.6
2018-Apr-22 17:00N 32°40' W 091°08'5 2.2
2018-Apr-22 14:41N 32°45' W 091°09'0 0.0
2018-Apr-22 14:30N 32°45' W 091°09'0 0.0
2018-Apr-22 14:00N 32°45' W 091°09'0 0.0
2018-Apr-22 13:30N 32°45' W 091°09'0 0.0
2018-Apr-22 12:58N 32°45' W 091°09'  
2018-Apr-15 04:16N 32°37' W 091°09'3 4.6
2018-Apr-15 03:40N 32°35' W 091°07'1 4.2
2018-Apr-15 03:30N 32°34' W 091°07'2 4.8
2018-Apr-15 03:00N 32°32' W 091°07'2 3.2
2018-Apr-15 02:30N 32°30' W 091°07'1 2.5
2018-Apr-15 02:00N 32°29' W 091°07'2 4.1
2018-Apr-15 01:30N 32°27' W 091°05'2 4.3
2018-Apr-15 01:00N 32°26' W 091°03'0 0.4
2018-Apr-15 00:30N 32°26' W 091°03'0 0.1
2018-Apr-15 00:00N 32°26' W 091°03'2 3.8
2018-Apr-14 23:30N 32°26' W 091°01'2 4.5
2018-Apr-14 23:00N 32°24' W 090°60'2 4.0
2018-Apr-14 22:30N 32°22' W 090°60'2 5.0
2018-Apr-14 22:00N 32°21' W 090°57'2 3.9
2018-Apr-14 21:30N 32°20' W 090°55'2 3.3
2018-Apr-14 21:00N 32°19' W 090°55'2 4.5
2018-Apr-14 20:30N 32°17' W 090°57'1 1.4
2018-Apr-14 20:00N 32°16' W 090°57'0 0.0
2018-Apr-14 19:30N 32°16' W 090°57'0 0.0
2018-Apr-14 19:00N 32°16' W 090°57'0 0.0
2018-Apr-14 18:30N 32°16' W 090°57'0 0.0
2018-Apr-14 18:00N 32°16' W 090°57'0 0.1
2018-Apr-14 17:30N 32°16' W 090°57'2 4.8
2018-Apr-14 17:00N 32°14' W 090°58'3 5.1
2018-Apr-14 16:30N 32°12' W 090°59'2 4.0
2018-Apr-14 16:00N 32°10' W 090°60'2 4.9
2018-Apr-14 15:30N 32°08' W 091°01'2 4.0
2018-Apr-14 14:59N 32°08' W 091°03'2 4.2
2018-Apr-14 14:27N 32°07' W 091°06'3 5.0
2018-Apr-14 13:51N 32°05' W 091°04'2 4.4
2018-Apr-14 13:27N 32°03' W 091°04'  
Track history (hours):
 
Tides and Currents Weather Stations Pressure Air Temp Water Temp Dewpoint Dewpoint Depression Visibility Wind Speed Wind Dir Waves Ship Positions

Myra Eckstein

Owner: Marquette Transportation Co. LLC, Paducah, KY. More information available from US FCC via Universal Licensing System and Coast Guard Vessel Documentation Center.

Last reported at 2018-Apr-22 20:00 UTC. Time now 2018-Apr-22 20:24 UTC.
Position N 32°19' W 090°54'.

Length 47 m; draft 3 m.

Type: Towing. MMSI: 367505510.

Date/timePositionNaut miles runAvg speedWind from/ knotsBaromVisibWave heightAir tempDewpointWater temp
2018-Apr-22 20:00N 32°19' W 090°54'4 7.9
2018-Apr-22 19:30N 32°21' W 090°58'4 7.3
2018-Apr-22 19:00N 32°24' W 090°60'3 6.9
2018-Apr-22 18:30N 32°26' W 091°03'5 9.3
2018-Apr-22 18:00N 32°30' W 091°07'510.5
2018-Apr-22 17:30N 32°35' W 091°07'5 9.6
2018-Apr-22 17:00N 32°40' W 091°08'5 2.2
2018-Apr-22 14:41N 32°45' W 091°09'0 0.0
2018-Apr-22 14:30N 32°45' W 091°09'0 0.0
2018-Apr-22 14:00N 32°45' W 091°09'0 0.0
2018-Apr-22 13:30N 32°45' W 091°09'0 0.0
2018-Apr-22 12:58N 32°45' W 091°09'  
2018-Apr-15 04:16N 32°37' W 091°09'3 4.6
2018-Apr-15 03:40N 32°35' W 091°07'1 4.2
2018-Apr-15 03:30N 32°34' W 091°07'2 4.8
2018-Apr-15 03:00N 32°32' W 091°07'2 3.2
2018-Apr-15 02:30N 32°30' W 091°07'1 2.5
2018-Apr-15 02:00N 32°29' W 091°07'2 4.1
2018-Apr-15 01:30N 32°27' W 091°05'2 4.3
2018-Apr-15 01:00N 32°26' W 091°03'0 0.4
2018-Apr-15 00:30N 32°26' W 091°03'0 0.1
2018-Apr-15 00:00N 32°26' W 091°03'2 3.8
2018-Apr-14 23:30N 32°26' W 091°01'2 4.5
2018-Apr-14 23:00N 32°24' W 090°60'2 4.0
2018-Apr-14 22:30N 32°22' W 090°60'2 5.0
2018-Apr-14 22:00N 32°21' W 090°57'2 3.9
2018-Apr-14 21:30N 32°20' W 090°55'2 3.3
2018-Apr-14 21:00N 32°19' W 090°55'2 4.5
2018-Apr-14 20:30N 32°17' W 090°57'1 1.4
2018-Apr-14 20:00N 32°16' W 090°57'0 0.0
2018-Apr-14 19:30N 32°16' W 090°57'0 0.0
2018-Apr-14 19:00N 32°16' W 090°57'0 0.0
2018-Apr-14 18:30N 32°16' W 090°57'0 0.0
2018-Apr-14 18:00N 32°16' W 090°57'0 0.1
2018-Apr-14 17:30N 32°16' W 090°57'2 4.8
2018-Apr-14 17:00N 32°14' W 090°58'3 5.1
2018-Apr-14 16:30N 32°12' W 090°59'2 4.0
2018-Apr-14 16:00N 32°10' W 090°60'2 4.9
2018-Apr-14 15:30N 32°08' W 091°01'2 4.0
2018-Apr-14 14:59N 32°08' W 091°03'2 4.2
2018-Apr-14 14:27N 32°07' W 091°06'3 5.0
2018-Apr-14 13:51N 32°05' W 091°04'2 4.4
2018-Apr-14 13:27N 32°03' W 091°04'  

Dump ship's entire track history